KCID/CID METAR and TAF weather

Enter ICAO airport designator
Station Type Date Time Source
KCID METAR 2021/01/20 22:52 UTC NOAA

KCID 202252Z 20014KT 10SM CLR 02/M04 A2977 RMK AO2 SLP094 T00221039


Station Type Date Time Source
KCID Decoded METAR 2021/01/20 22:52 UTC NOAA

CEDAR RAPIDS AIRPORT, IA, United States (KCID) 41-53N 91-43W
Jan 20, 2021 - 05:52 PM EST / 2021.01.20 2252 UTC
Wind: from the SSW (200 degrees) at 16 MPH (14 KT):0
Visibility: 10 mile(s):0
Sky conditions: clear
Temperature: 36.0 F (2.2 C)
Dew Point: 25.0 F (-3.9 C)
Relative Humidity: 63%
Pressure (altimeter): 29.77 in. Hg (1008 hPa)
ob: KCID 202252Z 20014KT 10SM CLR 02/M04 A2977 RMK AO2 SLP094 T00221039
cycle: 23

Station Type Date Time Source
KCID TAF 2021/01/20 22:51 UTC NOAA

TAF
AMD KCID 202149Z 2022/2118 19020KT P6SM SKC
FM210000 24013KT P6SM FEW250 WS020/26045KT
FM210200 26011KT P6SM FEW250

Example: see airport list